createdAt,value
2018-08-20T00:04:34.694Z,93890.05
2018-08-20T00:20:08.949Z,93889.13
2018-08-20T00:35:43.263Z,93881.84
2018-08-20T00:51:18.278Z,93874.23
2018-08-20T01:06:52.836Z,93863.31
2018-08-20T01:22:27.315Z,93863.35
2018-08-20T01:38:03.038Z,93862.69
2018-08-20T01:53:36.603Z,93874.61
2018-08-20T02:09:11.087Z,93877.89
2018-08-20T02:24:45.726Z,93863.22
2018-08-20T02:40:21.565Z,93862.33
2018-08-20T02:55:55.954Z,93871.55
2018-08-20T03:11:30.749Z,93874.56
2018-08-20T03:27:04.533Z,93882.77
2018-08-20T03:42:38.379Z,93880.06
2018-08-20T03:58:12.890Z,93866.04
2018-08-20T04:13:47.471Z,93872.22
2018-08-20T04:29:21.757Z,93873.62
2018-08-20T04:44:56.517Z,93869.22
2018-08-20T05:00:31.895Z,93854.08
2018-08-20T05:16:07.549Z,93861.91
2018-08-20T05:31:42.307Z,93860.20
2018-08-20T05:47:16.193Z,93857.48
2018-08-20T06:02:50.701Z,93862.77
2018-08-20T06:18:25.090Z,93878.42
2018-08-20T06:33:59.206Z,93880.70
2018-08-20T06:49:33.651Z,93870.86
2018-08-20T07:05:08.328Z,93886.08
2018-08-20T07:20:42.373Z,93880.36
2018-08-20T07:36:16.774Z,93872.41
2018-08-20T07:51:51.267Z,93873.11
2018-08-20T08:07:25.684Z,93878.59
2018-08-20T08:23:00.516Z,93878.11
2018-08-20T08:38:34.899Z,93870.03
2018-08-20T08:54:09.322Z,93861.53
2018-08-20T09:09:42.808Z,93843.54
2018-08-20T09:25:18.505Z,93832.17
2018-08-20T09:40:52.720Z,93807.41
2018-08-20T09:56:27.258Z,93791.50
2018-08-20T10:12:01.501Z,93805.80
2018-08-20T10:27:36.117Z,93825.92
2018-08-20T10:43:10.151Z,93816.41
2018-08-20T10:58:44.417Z,93816.48
2018-08-20T11:14:17.888Z,93817.92
2018-08-20T11:29:51.758Z,93823.12
2018-08-20T11:45:27.399Z,93891.67
2018-08-20T12:01:02.161Z,93893.53
2018-08-20T12:16:36.681Z,93858.45
2018-08-20T12:32:10.964Z,93844.92
2018-08-20T12:47:44.789Z,93813.50
2018-08-20T13:03:28.469Z,93795.51
2018-08-20T13:19:02.651Z,93792.53
2018-08-20T13:34:37.015Z,93786.81
2018-08-20T13:50:19.948Z,93788.67
2018-08-20T14:05:54.504Z,93779.34
2018-08-20T14:21:37.236Z,93775.91
2018-08-20T14:53:06.792Z,93777.81
2018-08-20T15:08:40.916Z,93771.77
2018-08-20T15:24:14.113Z,93766.33
2018-08-20T15:39:48.063Z,93762.47
2018-08-20T15:55:22.530Z,93757.54
2018-08-20T16:10:55.956Z,93753.52
2018-08-20T16:26:30.634Z,93761.28
2018-08-20T16:42:04.984Z,93767.32
2018-08-20T16:57:38.292Z,93784.70
2018-08-20T17:13:12.745Z,93780.19
2018-08-20T17:28:47.523Z,93765.67
2018-08-20T17:44:21.808Z,93772.78
2018-08-20T17:59:56.240Z,93786.70
2018-08-20T18:15:31.736Z,93804.74
2018-08-20T18:31:12.918Z,93817.77
2018-08-20T18:46:46.995Z,93820.87
2018-08-20T19:02:26.490Z,93825.78
2018-08-20T19:18:01.155Z,93823.57
2018-08-20T19:33:37.671Z,93823.94
2018-08-20T19:49:16.153Z,93826.48
2018-08-20T20:04:50.908Z,93814.78
2018-08-20T20:20:25.412Z,93813.50
2018-08-20T20:36:00.074Z,93822.18
2018-08-20T20:51:34.634Z,93819.51
2018-08-20T21:07:08.654Z,93825.73
2018-08-20T21:22:42.725Z,93846.28
2018-08-20T21:38:17.297Z,93853.06
2018-08-20T21:53:51.990Z,93858.84
2018-08-20T22:09:24.974Z,93854.25
2018-08-20T22:25:04.300Z,93849.07
2018-08-20T22:40:38.772Z,93845.22
2018-08-20T22:56:23.477Z,93842.23
2018-08-20T23:12:03.938Z,93847.48
2018-08-20T23:27:48.994Z,93844.73
2018-08-20T23:43:23.045Z,93847.75
2018-08-20T23:58:57.599Z,93841.57
